sensor_id;sensor_type;location;lat;lon;timestamp;pressure;altitude;pressure_sealevel;temperature;humidity
48824;BME280;34640;53.590;10.054;2023-08-30T00:01:24;100443.75;;;15.19;100.00
48824;BME280;34640;53.590;10.054;2023-08-30T00:04:24;100440.28;;;15.20;100.00
48824;BME280;34640;53.590;10.054;2023-08-30T00:07:16;100440.28;;;15.20;100.00
48824;BME280;34640;53.590;10.054;2023-08-30T00:10:13;100433.25;;;15.19;100.00
48824;BME280;34640;53.590;10.054;2023-08-30T00:13:12;100434.81;;;15.14;100.00
48824;BME280;34640;53.590;10.054;2023-08-30T00:16:07;100430.28;;;15.10;100.00
48824;BME280;34640;53.590;10.054;2023-08-30T00:18:58;100431.03;;;15.06;100.00
48824;BME280;34640;53.590;10.054;2023-08-30T00:21:51;100430.97;;;15.05;100.00
48824;BME280;34640;53.590;10.054;2023-08-30T00:24:48;100440.50;;;15.03;100.00
48824;BME280;34640;53.590;10.054;2023-08-30T00:27:40;100438.72;;;15.02;100.00
48824;BME280;34640;53.590;10.054;2023-08-30T00:30:38;100436.06;;;15.00;100.00
48824;BME280;34640;53.590;10.054;2023-08-30T00:33:35;100434.31;;;15.01;100.00
48824;BME280;34640;53.590;10.054;2023-08-30T00:36:34;100434.97;;;14.95;100.00
48824;BME280;34640;53.590;10.054;2023-08-30T00:39:33;100433.19;;;14.94;100.00
48824;BME280;34640;53.590;10.054;2023-08-30T00:42:30;100433.91;;;14.90;100.00
48824;BME280;34640;53.590;10.054;2023-08-30T00:45:29;100430.34;;;14.88;100.00
48824;BME280;34640;53.590;10.054;2023-08-30T00:48:26;100432.03;;;14.86;100.00
48824;BME280;34640;53.590;10.054;2023-08-30T00:51:25;100434.53;;;14.83;100.00
48824;BME280;34640;53.590;10.054;2023-08-30T00:54:23;100428.28;;;14.79;100.00
48824;BME280;34640;53.590;10.054;2023-08-30T00:57:16;100425.56;;;14.76;100.00
48824;BME280;34640;53.590;10.054;2023-08-30T01:00:14;100420.16;;;14.73;100.00
48824;BME280;34640;53.590;10.054;2023-08-30T01:03:06;100425.31;;;14.70;100.00
48824;BME280;34640;53.590;10.054;2023-08-30T01:05:58;100415.50;;;14.64;100.00
48824;BME280;34640;53.590;10.054;2023-08-30T01:08:57;100416.16;;;14.59;100.00
48824;BME280;34640;53.590;10.054;2023-08-30T01:11:56;100418.53;;;14.53;100.00
48824;BME280;34640;53.590;10.054;2023-08-30T01:14:57;100415.56;;;14.44;100.00
48824;BME280;34640;53.590;10.054;2023-08-30T01:17:50;100413.69;;;14.41;100.00
48824;BME280;34640;53.590;10.054;2023-08-30T01:20:42;100413.91;;;14.46;100.00
48824;BME280;34640;53.590;10.054;2023-08-30T01:23:42;100412.28;;;14.49;100.00
48824;BME280;34640;53.590;10.054;2023-08-30T01:26:48;100406.34;;;14.53;100.00
48824;BME280;34640;53.590;10.054;2023-08-30T01:29:44;100395.91;;;14.55;100.00
48824;BME280;34640;53.590;10.054;2023-08-30T01:32:44;100394.34;;;14.60;100.00
48824;BME280;34640;53.590;10.054;2023-08-30T01:35:43;100391.69;;;14.58;100.00
48824;BME280;34640;53.590;10.054;2023-08-30T01:38:41;100400.38;;;14.57;100.00
48824;BME280;34640;53.590;10.054;2023-08-30T01:41:32;100390.78;;;14.58;100.00
48824;BME280;34640;53.590;10.054;2023-08-30T01:44:32;100386.34;;;14.55;100.00
48824;BME280;34640;53.590;10.054;2023-08-30T01:47:32;100391.50;;;14.54;100.00
48824;BME280;34640;53.590;10.054;2023-08-30T01:50:31;100396.59;;;14.51;100.00
48824;BME280;34640;53.590;10.054;2023-08-30T01:53:30;100397.41;;;14.48;100.00
48824;BME280;34640;53.590;10.054;2023-08-30T01:56:28;100391.09;;;14.43;100.00
48824;BME280;34640;53.590;10.054;2023-08-30T01:59:26;100385.06;;;14.46;100.00
48824;BME280;34640;53.590;10.054;2023-08-30T02:02:18;100386.66;;;14.42;100.00
48824;BME280;34640;53.590;10.054;2023-08-30T02:05:17;100386.47;;;14.37;100.00
48824;BME280;34640;53.590;10.054;2023-08-30T02:08:09;100389.09;;;14.37;100.00
48824;BME280;34640;53.590;10.054;2023-08-30T02:11:13;100383.75;;;14.34;100.00
48824;BME280;34640;53.590;10.054;2023-08-30T02:14:05;100382.84;;;14.34;100.00
48824;BME280;34640;53.590;10.054;2023-08-30T02:16:58;100381.13;;;14.34;100.00
48824;BME280;34640;53.590;10.054;2023-08-30T02:19:49;100373.16;;;14.31;100.00
48824;BME280;34640;53.590;10.054;2023-08-30T02:22:51;100374.84;;;14.31;100.00
48824;BME280;34640;53.590;10.054;2023-08-30T02:25:49;100379.28;;;14.32;100.00
48824;BME280;34640;53.590;10.054;2023-08-30T02:28:47;100382.72;;;14.31;100.00
48824;BME280;34640;53.590;10.054;2023-08-30T02:31:38;100375.00;;;14.34;100.00
48824;BME280;34640;53.590;10.054;2023-08-30T02:34:36;100377.78;;;14.38;100.00
48824;BME280;34640;53.590;10.054;2023-08-30T02:37:33;100376.91;;;14.38;100.00
48824;BME280;34640;53.590;10.054;2023-08-30T02:40:33;100371.66;;;14.38;100.00
48824;BME280;34640;53.590;10.054;2023-08-30T02:43:31;100367.25;;;14.37;100.00
48824;BME280;34640;53.590;10.054;2023-08-30T02:46:29;100366.38;;;14.36;100.00
48824;BME280;34640;53.590;10.054;2023-08-30T02:49:27;100375.13;;;14.37;100.00
48824;BME280;34640;53.590;10.054;2023-08-30T02:52:25;100382.25;;;14.41;100.00
48824;BME280;34640;53.590;10.054;2023-08-30T02:55:23;100374.44;;;14.43;100.00
48824;BME280;34640;53.590;10.054;2023-08-30T02:58:22;100377.84;;;14.40;100.00
48824;BME280;34640;53.590;10.054;2023-08-30T03:01:20;100375.28;;;14.42;100.00
48824;BME280;34640;53.590;10.054;2023-08-30T03:04:18;100382.25;;;14.41;100.00
48824;BME280;34640;53.590;10.054;2023-08-30T03:07:16;100377.91;;;14.42;100.00
48824;BME280;34640;53.590;10.054;2023-08-30T03:10:14;100374.38;;;14.41;100.00
48824;BME280;34640;53.590;10.054;2023-08-30T03:13:12;100371.78;;;14.41;100.00
48824;BME280;34640;53.590;10.054;2023-08-30T03:16:12;100374.38;;;14.41;100.00
48824;BME280;34640;53.590;10.054;2023-08-30T03:19:03;100369.09;;;14.40;100.00
48824;BME280;34640;53.590;10.054;2023-08-30T03:21:58;100376.94;;;14.40;100.00
48824;BME280;34640;53.590;10.054;2023-08-30T03:24:56;100373.38;;;14.37;100.00
48824;BME280;34640;53.590;10.054;2023-08-30T03:27:50;100370.44;;;14.30;100.00
48824;BME280;34640;53.590;10.054;2023-08-30T03:30:48;100369.72;;;14.32;100.00
48824;BME280;34640;53.590;10.054;2023-08-30T03:33:40;100367.16;;;14.34;100.00
48824;BME280;34640;53.590;10.054;2023-08-30T03:36:41;100375.00;;;14.34;100.00
48824;BME280;34640;53.590;10.054;2023-08-30T03:39:40;100363.38;;;14.27;100.00
48824;BME280;34640;53.590;10.054;2023-08-30T03:42:31;100364.31;;;14.29;100.00
48824;BME280;34640;53.590;10.054;2023-08-30T03:45:29;100359.97;;;14.30;100.00
48824;BME280;34640;53.590;10.054;2023-08-30T03:48:27;100355.56;;;14.29;100.00
48824;BME280;34640;53.590;10.054;2023-08-30T03:51:26;100369.50;;;14.28;100.00
48824;BME280;34640;53.590;10.054;2023-08-30T03:54:24;100358.84;;;14.23;100.00
48824;BME280;34640;53.590;10.054;2023-08-30T03:57:21;100349.28;;;14.24;100.00
48824;BME280;34640;53.590;10.054;2023-08-30T04:00:13;100346.75;;;14.27;100.00
48824;BME280;34640;53.590;10.054;2023-08-30T04:03:12;100342.53;;;14.30;100.00
48824;BME280;34640;53.590;10.054;2023-08-30T04:06:11;100347.03;;;14.33;100.00
48824;BME280;34640;53.590;10.054;2023-08-30T04:09:10;100341.72;;;14.31;100.00
48824;BME280;34640;53.590;10.054;2023-08-30T04:12:07;100334.66;;;14.30;100.00
48824;BME280;34640;53.590;10.054;2023-08-30T04:15:06;100328.63;;;14.31;100.00
48824;BME280;34640;53.590;10.054;2023-08-30T04:17:57;100327.78;;;14.32;100.00
48824;BME280;34640;53.590;10.054;2023-08-30T04:20:48;100318.06;;;14.30;100.00
48824;BME280;34640;53.590;10.054;2023-08-30T04:23:47;100317.06;;;14.26;100.00
48824;BME280;34640;53.590;10.054;2023-08-30T04:26:46;100310.00;;;14.24;100.00
48824;BME280;34640;53.590;10.054;2023-08-30T04:29:48;100317.06;;;14.26;100.00
48824;BME280;34640;53.590;10.054;2023-08-30T04:32:39;100312.81;;;14.30;100.00
48824;BME280;34640;53.590;10.054;2023-08-30T04:35:30;100317.31;;;14.32;100.00
48824;BME280;34640;53.590;10.054;2023-08-30T04:38:28;100311.19;;;14.32;100.00
48824;BME280;34640;53.590;10.054;2023-08-30T04:41:26;100310.41;;;14.34;100.00
48824;BME280;34640;53.590;10.054;2023-08-30T04:44:25;100300.81;;;14.35;100.00
48824;BME280;34640;53.590;10.054;2023-08-30T04:47:24;100307.91;;;14.37;100.00
48824;BME280;34640;53.590;10.054;2023-08-30T04:50:22;100311.34;;;14.36;100.00
48824;BME280;34640;53.590;10.054;2023-08-30T04:53:20;100311.34;;;14.36;100.00
48824;BME280;34640;53.590;10.054;2023-08-30T04:56:18;100302.81;;;14.42;100.00
48824;BME280;34640;53.590;10.054;2023-08-30T04:59:16;100311.88;;;14.50;100.00
48824;BME280;34640;53.590;10.054;2023-08-30T05:02:08;100314.50;;;14.50;100.00
48824;BME280;34640;53.590;10.054;2023-08-30T05:05:07;100321.66;;;14.54;100.00
48824;BME280;34640;53.590;10.054;2023-08-30T05:08:05;100312.91;;;14.54;100.00
48824;BME280;34640;53.590;10.054;2023-08-30T05:11:04;100306.88;;;14.56;100.00
48824;BME280;34640;53.590;10.054;2023-08-30T05:14:02;100305.31;;;14.61;100.00
48824;BME280;34640;53.590;10.054;2023-08-30T05:16:53;100307.16;;;14.64;100.00
48824;BME280;34640;53.590;10.054;2023-08-30T05:19:46;100305.53;;;14.67;100.00
48824;BME280;34640;53.590;10.054;2023-08-30T05:22:44;100308.28;;;14.72;100.00
48824;BME280;34640;53.590;10.054;2023-08-30T05:25:42;100311.09;;;14.77;100.00
48824;BME280;34640;53.590;10.054;2023-08-30T05:28:40;100311.25;;;14.81;100.00
48824;BME280;34640;53.590;10.054;2023-08-30T05:31:38;100312.09;;;14.80;100.00
48824;BME280;34640;53.590;10.054;2023-08-30T05:34:29;100312.25;;;14.85;100.00
48824;BME280;34640;53.590;10.054;2023-08-30T05:37:22;100313.34;;;14.91;100.00
48824;BME280;34640;53.590;10.054;2023-08-30T05:40:20;100318.88;;;14.99;100.00
48824;BME280;34640;53.590;10.054;2023-08-30T05:43:18;100319.00;;;15.02;100.00
48824;BME280;34640;53.590;10.054;2023-08-30T05:46:16;100315.53;;;15.03;100.00
48824;BME280;34640;53.590;10.054;2023-08-30T05:49:14;100314.09;;;15.13;100.00
48824;BME280;34640;53.590;10.054;2023-08-30T05:52:12;100309.09;;;15.19;100.00
48824;BME280;34640;53.590;10.054;2023-08-30T05:55:11;100307.25;;;15.18;100.00
48824;BME280;34640;53.590;10.054;2023-08-30T05:58:09;100304.13;;;15.28;100.00
48824;BME280;34640;53.590;10.054;2023-08-30T06:01:07;100299.03;;;15.33;100.00
48824;BME280;34640;53.590;10.054;2023-08-30T06:03:59;100292.84;;;15.31;100.00
48824;BME280;34640;53.590;10.054;2023-08-30T06:06:57;100293.22;;;15.41;100.00
48824;BME280;34640;53.590;10.054;2023-08-30T06:09:55;100286.22;;;15.42;100.00
48824;BME280;34640;53.590;10.054;2023-08-30T06:12:56;100282.28;;;15.56;100.00
48824;BME280;34640;53.590;10.054;2023-08-30T06:15:54;100278.78;;;15.55;100.00
48824;BME280;34640;53.590;10.054;2023-08-30T06:18:45;100276.78;;;15.74;100.00
48824;BME280;34640;53.590;10.054;2023-08-30T06:21:43;100276.22;;;15.84;100.00
48824;BME280;34640;53.590;10.054;2023-08-30T06:24:41;100273.91;;;15.95;100.00
48824;BME280;34640;53.590;10.054;2023-08-30T06:27:40;100267.91;;;15.99;100.00
48824;BME280;34640;53.590;10.054;2023-08-30T06:30:39;100262.34;;;16.18;100.00
48824;BME280;34640;53.590;10.054;2023-08-30T06:33:37;100265.53;;;16.38;100.00
48824;BME280;34640;53.590;10.054;2023-08-30T06:36:35;100263.16;;;16.47;100.00
48824;BME280;34640;53.590;10.054;2023-08-30T06:39:31;100249.72;;;16.66;100.00
48824;BME280;34640;53.590;10.054;2023-08-30T06:42:30;100243.00;;;16.77;100.00
48824;BME280;34640;53.590;10.054;2023-08-30T06:45:28;100240.41;;;16.79;100.00
48824;BME280;34640;53.590;10.054;2023-08-30T06:48:27;100233.59;;;16.87;100.00
48824;BME280;34640;53.590;10.054;2023-08-30T06:51:25;100240.00;;;16.97;100.00
48824;BME280;34640;53.590;10.054;2023-08-30T06:54:19;100237.44;;;17.00;100.00
48824;BME280;34640;53.590;10.054;2023-08-30T06:57:17;100240.31;;;17.09;100.00
48824;BME280;34640;53.590;10.054;2023-08-30T07:00:12;100233.53;;;17.19;100.00
48824;BME280;34640;53.590;10.054;2023-08-30T07:03:11;100230.19;;;17.26;100.00
48824;BME280;34640;53.590;10.054;2023-08-30T07:06:10;100228.53;;;17.29;100.00
48824;BME280;34640;53.590;10.054;2023-08-30T07:09:03;100228.78;;;17.40;100.00
48824;BME280;34640;53.590;10.054;2023-08-30T07:12:03;100229.84;;;17.48;100.00
48824;BME280;34640;53.590;10.054;2023-08-30T07:14:58;100231.00;;;17.59;100.00
48824;BME280;34640;53.590;10.054;2023-08-30T07:17:50;100240.06;;;17.70;100.00
48824;BME280;34640;53.590;10.054;2023-08-30T07:20:43;100234.25;;;17.85;100.00
48824;BME280;34640;53.590;10.054;2023-08-30T07:23:36;100235.13;;;17.86;100.00
48824;BME280;34640;53.590;10.054;2023-08-30T07:26:35;100232.72;;;17.96;100.00
48824;BME280;34640;53.590;10.054;2023-08-30T07:29:26;100225.44;;;18.25;100.00
48824;BME280;34640;53.590;10.054;2023-08-30T07:32:24;100233.97;;;18.14;100.00
48824;BME280;34640;53.590;10.054;2023-08-30T07:35:22;100225.28;;;18.19;100.00
48824;BME280;34640;53.590;10.054;2023-08-30T07:38:13;100224.41;;;18.19;100.00
48824;BME280;34640;53.590;10.054;2023-08-30T07:41:08;100232.53;;;18.29;100.00
48824;BME280;34640;53.590;10.054;2023-08-30T07:44:02;100232.63;;;18.34;100.00
48824;BME280;34640;53.590;10.054;2023-08-30T07:46:53;100244.28;;;18.45;100.00
48824;BME280;34640;53.590;10.054;2023-08-30T07:49:51;100242.81;;;18.61;100.00
48824;BME280;34640;53.590;10.054;2023-08-30T07:52:49;100245.81;;;18.79;100.00
48824;BME280;34640;53.590;10.054;2023-08-30T07:55:41;100250.25;;;18.82;100.00
48824;BME280;34640;53.590;10.054;2023-08-30T07:58:41;100246.22;;;19.01;100.00
48824;BME280;34640;53.590;10.054;2023-08-30T08:01:32;100250.22;;;19.30;100.00
48824;BME280;34640;53.590;10.054;2023-08-30T08:04:30;100240.81;;;19.47;100.00
48824;BME280;34640;53.590;10.054;2023-08-30T08:07:28;100236.25;;;19.37;100.00
48824;BME280;34640;53.590;10.054;2023-08-30T08:10:19;100238.97;;;19.42;100.00
48824;BME280;34640;53.590;10.054;2023-08-30T08:13:10;100234.41;;;19.32;100.00
48824;BME280;34640;53.590;10.054;2023-08-30T08:16:05;100240.81;;;19.47;100.00
48824;BME280;34640;53.590;10.054;2023-08-30T08:18:57;100242.72;;;19.55;100.00
48824;BME280;34640;53.590;10.054;2023-08-30T08:21:50;100242.16;;;19.75;100.00
48824;BME280;34640;53.590;10.054;2023-08-30T08:24:43;100243.75;;;19.64;100.00
48824;BME280;34640;53.590;10.054;2023-08-30T08:27:35;100244.31;;;19.46;100.00
48824;BME280;34640;53.590;10.054;2023-08-30T08:30:26;100246.75;;;19.31;100.00
48824;BME280;34640;53.590;10.054;2023-08-30T08:33:25;100248.56;;;19.35;100.00
48824;BME280;34640;53.590;10.054;2023-08-30T08:36:23;100248.50;;;19.31;100.00
48824;BME280;34640;53.590;10.054;2023-08-30T08:39:21;100253.03;;;19.39;100.00
48824;BME280;34640;53.590;10.054;2023-08-30T08:42:13;100247.47;;;19.24;100.00
48824;BME280;34640;53.590;10.054;2023-08-30T08:45:06;100247.66;;;19.33;100.00
48824;BME280;34640;53.590;10.054;2023-08-30T08:47:58;100253.88;;;19.38;100.00
48824;BME280;34640;53.590;10.054;2023-08-30T08:50:51;100246.25;;;19.55;100.00
48824;BME280;34640;53.590;10.054;2023-08-30T08:53:50;100249.91;;;19.65;100.00
48824;BME280;34640;53.590;10.054;2023-08-30T08:56:48;100248.38;;;19.79;100.00
48824;BME280;34640;53.590;10.054;2023-08-30T08:59:46;100249.59;;;20.04;100.00
48824;BME280;34640;53.590;10.054;2023-08-30T09:02:44;100246.00;;;19.99;100.00
48824;BME280;34640;53.590;10.054;2023-08-30T09:05:37;100249.16;;;19.73;100.00
48824;BME280;34640;53.590;10.054;2023-08-30T09:08:36;100250.91;;;19.73;100.00
48824;BME280;34640;53.590;10.054;2023-08-30T09:11:27;100250.25;;;19.88;100.00
48824;BME280;34640;53.590;10.054;2023-08-30T09:14:52;100251.38;;;20.05;100.00
48824;BME280;34640;53.590;10.054;2023-08-30T09:17:44;100247.63;;;19.91;100.00
48824;BME280;34640;53.590;10.054;2023-08-30T09:20:37;100253.53;;;19.73;100.00
48824;BME280;34640;53.590;10.054;2023-08-30T09:23:32;100253.50;;;19.70;100.00
48824;BME280;34640;53.590;10.054;2023-08-30T09:26:25;100254.06;;;19.50;100.00
48824;BME280;34640;53.590;10.054;2023-08-30T09:29:24;100251.41;;;19.49;100.00
48824;BME280;34640;53.590;10.054;2023-08-30T09:32:20;100244.72;;;19.71;100.00
48824;BME280;34640;53.590;10.054;2023-08-30T09:35:18;100237.09;;;19.94;100.00
48824;BME280;34640;53.590;10.054;2023-08-30T09:38:15;100243.47;;;20.09;100.00
48824;BME280;34640;53.590;10.054;2023-08-30T09:41:06;100240.09;;;20.18;100.00
48824;BME280;34640;53.590;10.054;2023-08-30T09:43:59;100232.22;;;20.23;100.00
48824;BME280;34640;53.590;10.054;2023-08-30T09:47:03;100240.97;;;20.17;100.00
48824;BME280;34640;53.590;10.054;2023-08-30T09:50:01;100242.38;;;19.92;100.00
48824;BME280;34640;53.590;10.054;2023-08-30T09:52:53;100230.78;;;19.82;100.00
48824;BME280;34640;53.590;10.054;2023-08-30T09:55:44;100229.03;;;19.83;100.00
48824;BME280;34640;53.590;10.054;2023-08-30T09:58:35;100227.28;;;19.83;100.00
48824;BME280;34640;53.590;10.054;2023-08-30T10:01:29;100232.56;;;19.83;100.00
48824;BME280;34640;53.590;10.054;2023-08-30T10:04:20;100229.94;;;19.85;100.00
48824;BME280;34640;53.590;10.054;2023-08-30T10:07:13;100224.59;;;19.80;100.00
48824;BME280;34640;53.590;10.054;2023-08-30T10:10:11;100226.88;;;19.55;100.00
48824;BME280;34640;53.590;10.054;2023-08-30T10:13:11;100226.84;;;19.53;100.00
48824;BME280;34640;53.590;10.054;2023-08-30T10:16:04;100224.25;;;19.55;100.00
48824;BME280;34640;53.590;10.054;2023-08-30T10:19:11;100233.09;;;19.58;100.00
48824;BME280;34640;53.590;10.054;2023-08-30T10:22:05;100221.75;;;19.67;100.00
48824;BME280;34640;53.590;10.054;2023-08-30T10:24:59;100227.25;;;19.80;100.00
48824;BME280;34640;53.590;10.054;2023-08-30T10:28:01;100218.56;;;19.91;100.00
48824;BME280;34640;53.590;10.054;2023-08-30T10:30:54;100222.09;;;19.93;100.00
48824;BME280;34640;53.590;10.054;2023-08-30T10:33:52;100219.53;;;19.96;100.00
48824;BME280;34640;53.590;10.054;2023-08-30T10:36:58;100224.66;;;19.85;100.00
48824;BME280;34640;53.590;10.054;2023-08-30T10:39:59;100223.84;;;19.91;100.00
48824;BME280;34640;53.590;10.054;2023-08-30T10:43:00;100219.59;;;20.00;100.00
48824;BME280;34640;53.590;10.054;2023-08-30T10:45:57;100221.47;;;20.10;100.00
48824;BME280;34640;53.590;10.054;2023-08-30T10:48:50;100221.38;;;20.03;100.00
48824;BME280;34640;53.590;10.054;2023-08-30T10:51:54;100219.88;;;20.23;100.00
48824;BME280;34640;53.590;10.054;2023-08-30T10:55:03;100218.19;;;20.30;100.00
48824;BME280;34640;53.590;10.054;2023-08-30T10:57:59;100219.38;;;20.56;100.00
48824;BME280;34640;53.590;10.054;2023-08-30T11:00:50;100210.47;;;20.47;100.00
48824;BME280;34640;53.590;10.054;2023-08-30T11:03:42;100213.00;;;20.39;100.00
48824;BME280;34640;53.590;10.054;2023-08-30T11:06:33;100210.56;;;20.57;100.00
48824;BME280;34640;53.590;10.054;2023-08-30T11:09:31;100208.09;;;20.74;100.00
48824;BME280;34640;53.590;10.054;2023-08-30T11:12:24;100211.66;;;20.76;100.00
48824;BME280;34640;53.590;10.054;2023-08-30T11:15:23;100198.28;;;20.62;100.00
48824;BME280;34640;53.590;10.054;2023-08-30T11:18:18;100202.75;;;20.68;100.00
48824;BME280;34640;53.590;10.054;2023-08-30T11:21:10;100195.34;;;20.38;100.00
48824;BME280;34640;53.590;10.054;2023-08-30T11:24:03;100195.47;;;20.46;100.00
48824;BME280;34640;53.590;10.054;2023-08-30T11:26:54;100195.22;;;20.26;100.00
48824;BME280;34640;53.590;10.054;2023-08-30T11:29:53;100185.56;;;20.29;100.00
48824;BME280;34640;53.590;10.054;2023-08-30T11:32:51;100181.41;;;20.51;100.00
48824;BME280;34640;53.590;10.054;2023-08-30T11:35:51;100191.22;;;20.61;100.00
48824;BME280;34640;53.590;10.054;2023-08-30T11:38:51;100176.06;;;20.43;100.00
48824;BME280;34640;53.590;10.054;2023-08-30T11:41:50;100187.75;;;20.68;100.00
48824;BME280;34640;53.590;10.054;2023-08-30T11:44:43;100179.03;;;20.80;100.00
48824;BME280;34640;53.590;10.054;2023-08-30T11:47:37;100183.38;;;20.72;100.00
48824;BME280;34640;53.590;10.054;2023-08-30T11:50:32;100179.84;;;20.71;100.00
48824;BME280;34640;53.590;10.054;2023-08-30T11:53:38;100173.81;;;20.85;100.00
48824;BME280;34640;53.590;10.054;2023-08-30T11:56:34;100173.09;;;21.04;100.00
48824;BME280;34640;53.590;10.054;2023-08-30T11:59:34;100164.31;;;21.11;100.00
48824;BME280;34640;53.590;10.054;2023-08-30T12:02:32;100151.97;;;21.16;100.00
48824;BME280;34640;53.590;10.054;2023-08-30T12:05:33;100153.00;;;21.29;100.00
48824;BME280;34640;53.590;10.054;2023-08-30T12:08:33;100151.13;;;21.22;100.00
48824;BME280;34640;53.590;10.054;2023-08-30T12:11:31;100155.38;;;21.01;100.00
48824;BME280;34640;53.590;10.054;2023-08-30T12:14:32;100152.69;;;20.94;100.00
48824;BME280;34640;53.590;10.054;2023-08-30T12:17:23;100148.28;;;20.94;100.00
48824;BME280;34640;53.590;10.054;2023-08-30T12:20:15;100148.34;;;21.03;100.00
48824;BME280;34640;53.590;10.054;2023-08-30T12:23:18;100150.97;;;21.02;100.00
48824;BME280;34640;53.590;10.054;2023-08-30T12:26:13;100142.22;;;21.11;100.00
48824;BME280;34640;53.590;10.054;2023-08-30T12:29:11;100148.41;;;21.10;100.00
48824;BME280;34640;53.590;10.054;2023-08-30T12:32:03;100144.03;;;21.18;100.00
48824;BME280;34640;53.590;10.054;2023-08-30T12:35:01;100142.09;;;20.94;100.00
48824;BME280;34640;53.590;10.054;2023-08-30T12:37:53;100134.16;;;20.95;100.00
48824;BME280;34640;53.590;10.054;2023-08-30T12:40:48;100125.47;;;21.13;100.00
48824;BME280;34640;53.590;10.054;2023-08-30T12:43:39;100125.50;;;21.21;100.00
48824;BME280;34640;53.590;10.054;2023-08-30T12:46:37;100116.81;;;21.35;100.00
48824;BME280;34640;53.590;10.054;2023-08-30T12:49:28;100108.75;;;21.20;100.00
48824;BME280;34640;53.590;10.054;2023-08-30T12:52:20;100117.47;;;21.04;100.00
48824;BME280;34640;53.590;10.054;2023-08-30T12:55:18;100111.50;;;21.28;100.00
48824;BME280;34640;53.590;10.054;2023-08-30T12:58:10;100107.94;;;21.26;100.00
48824;BME280;34640;53.590;10.054;2023-08-30T13:01:04;100101.81;;;21.33;100.00
48824;BME280;34640;53.590;10.054;2023-08-30T13:03:57;100098.28;;;21.35;100.00
48824;BME280;34640;53.590;10.054;2023-08-30T13:06:48;100091.22;;;21.41;100.00
48824;BME280;34640;53.590;10.054;2023-08-30T13:09:47;100099.19;;;21.47;100.00
48824;BME280;34640;53.590;10.054;2023-08-30T13:12:45;100093.88;;;21.44;100.00
48824;BME280;34640;53.590;10.054;2023-08-30T13:15:44;100078.78;;;21.24;100.00
48824;BME280;34640;53.590;10.054;2023-08-30T13:18:36;100087.53;;;21.16;100.00
48824;BME280;34640;53.590;10.054;2023-08-30T13:21:27;100091.06;;;21.13;100.00
48824;BME280;34640;53.590;10.054;2023-08-30T13:24:31;100084.03;;;21.23;100.00
48824;BME280;34640;53.590;10.054;2023-08-30T13:27:27;100077.09;;;21.43;100.00
48824;BME280;34640;53.590;10.054;2023-08-30T13:30:25;100080.69;;;21.48;100.00
48824;BME280;34640;53.590;10.054;2023-08-30T13:33:17;100072.69;;;21.42;100.00
48824;BME280;34640;53.590;10.054;2023-08-30T13:36:09;100073.44;;;21.20;100.00
48824;BME280;34640;53.590;10.054;2023-08-30T13:39:00;100071.75;;;21.28;100.00
48824;BME280;34640;53.590;10.054;2023-08-30T13:41:52;100079.75;;;21.39;100.00
48824;BME280;34640;53.590;10.054;2023-08-30T13:44:49;100065.59;;;21.37;100.00
48824;BME280;34640;53.590;10.054;2023-08-30T13:47:47;100068.22;;;21.29;100.00
48824;BME280;34640;53.590;10.054;2023-08-30T13:50:42;100063.91;;;21.49;100.00
48824;BME280;34640;53.590;10.054;2023-08-30T13:53:33;100072.78;;;21.60;100.00
48824;BME280;34640;53.590;10.054;2023-08-30T13:56:31;100066.59;;;21.64;96.99
48824;BME280;34640;53.590;10.054;2023-08-30T13:59:23;100054.09;;;21.28;96.65
48824;BME280;34640;53.590;10.054;2023-08-30T14:02:15;100063.69;;;21.11;100.00
48824;BME280;34640;53.590;10.054;2023-08-30T14:05:06;100055.75;;;21.16;100.00
48824;BME280;34640;53.590;10.054;2023-08-30T14:08:01;100054.84;;;21.06;100.00
48824;BME280;34640;53.590;10.054;2023-08-30T14:10:59;100050.44;;;21.10;100.00
48824;BME280;34640;53.590;10.054;2023-08-30T14:13:57;100052.13;;;21.01;100.00
48824;BME280;34640;53.590;10.054;2023-08-30T14:16:49;100056.53;;;20.96;100.00
48824;BME280;34640;53.590;10.054;2023-08-30T14:19:40;100049.47;;;21.01;97.50
48824;BME280;34640;53.590;10.054;2023-08-30T14:22:33;100044.16;;;20.97;98.04
48824;BME280;34640;53.590;10.054;2023-08-30T14:25:32;100038.84;;;20.92;100.00
48824;BME280;34640;53.590;10.054;2023-08-30T14:28:30;100046.00;;;21.04;100.00
48824;BME280;34640;53.590;10.054;2023-08-30T14:31:28;100046.91;;;21.08;100.00
48824;BME280;34640;53.590;10.054;2023-08-30T14:34:27;100051.31;;;21.09;99.38
48824;BME280;34640;53.590;10.054;2023-08-30T14:37:25;100051.31;;;21.09;98.38
48824;BME280;34640;53.590;10.054;2023-08-30T14:40:23;100049.44;;;20.94;100.00
48824;BME280;34640;53.590;10.054;2023-08-30T14:43:23;100045.00;;;20.87;100.00
48824;BME280;34640;53.590;10.054;2023-08-30T14:46:15;100041.47;;;20.88;100.00
48824;BME280;34640;53.590;10.054;2023-08-30T14:49:14;100051.09;;;20.80;100.00
48824;BME280;34640;53.590;10.054;2023-08-30T14:52:05;100059.03;;;20.80;100.00
48824;BME280;34640;53.590;10.054;2023-08-30T14:54:57;100049.41;;;20.83;100.00
48824;BME280;34640;53.590;10.054;2023-08-30T14:57:50;100044.97;;;20.82;100.00